createdAt,value
2018-05-08T00:00:17.991Z,14.50
2018-05-08T00:02:46.075Z,14.50
2018-05-08T00:05:14.240Z,14.40
2018-05-08T00:07:42.293Z,14.40
2018-05-08T00:10:10.376Z,14.50
2018-05-08T00:12:38.807Z,14.60
2018-05-08T00:15:06.879Z,14.50
2018-05-08T00:17:34.925Z,14.50
2018-05-08T00:20:03.263Z,14.50
2018-05-08T00:22:31.336Z,14.60
2018-05-08T00:24:59.385Z,14.60
2018-05-08T00:27:28.818Z,14.60
2018-05-08T00:29:56.873Z,14.50
2018-05-08T00:32:24.953Z,14.60
2018-05-08T00:34:53.162Z,14.60
2018-05-08T00:37:21.229Z,14.50
2018-05-08T00:39:49.305Z,14.50
2018-05-08T00:42:17.717Z,14.50
2018-05-08T00:44:46.552Z,14.00
2018-05-08T00:47:14.614Z,14.00
2018-05-08T00:49:42.834Z,13.90
2018-05-08T00:52:10.902Z,14.00
2018-05-08T00:54:50.664Z,14.20
2018-05-08T00:57:19.637Z,14.20
2018-05-08T00:59:47.740Z,14.10
2018-05-08T01:02:16.573Z,14.10
2018-05-08T01:04:44.775Z,14.10
2018-05-08T01:07:12.850Z,14.20
2018-05-08T01:09:40.915Z,14.20
2018-05-08T01:12:09.292Z,14.20
2018-05-08T01:14:37.363Z,14.10
2018-05-08T01:17:05.434Z,14.10
2018-05-08T01:19:33.814Z,14.00
2018-05-08T01:22:01.891Z,14.10
2018-05-08T01:24:29.968Z,13.90
2018-05-08T01:26:58.327Z,14.00
2018-05-08T01:29:27.071Z,14.00
2018-05-08T01:31:55.888Z,14.00
2018-05-08T01:34:24.050Z,13.90
2018-05-08T01:36:52.128Z,13.90
2018-05-08T01:39:20.199Z,14.00
2018-05-08T01:41:49.051Z,13.80
2018-05-08T01:44:17.885Z,13.90
2018-05-08T01:46:45.949Z,13.80
2018-05-08T01:49:14.371Z,13.90
2018-05-08T01:51:43.217Z,13.80
2018-05-08T01:54:11.294Z,13.80
2018-05-08T01:56:39.492Z,13.90
2018-05-08T01:59:07.578Z,13.80
2018-05-08T02:01:36.418Z,13.80
2018-05-08T02:04:04.954Z,13.80
2018-05-08T02:06:33.774Z,13.70
2018-05-08T02:09:01.848Z,13.70
2018-05-08T02:11:30.392Z,13.80
2018-05-08T02:13:59.221Z,13.80
2018-05-08T02:16:27.299Z,13.80
2018-05-08T02:18:55.424Z,13.80
2018-05-08T02:21:23.490Z,13.70
2018-05-08T02:23:51.561Z,13.60
2018-05-08T02:26:20.062Z,13.50
2018-05-08T02:28:48.896Z,13.60
2018-05-08T02:31:18.063Z,13.50
2018-05-08T02:33:46.920Z,13.60
2018-05-08T02:36:14.982Z,13.60
2018-05-08T02:38:43.055Z,13.40
2018-05-08T02:41:11.540Z,13.50
2018-05-08T02:43:39.614Z,13.50
2018-05-08T02:46:07.692Z,13.50
2018-05-08T02:48:36.649Z,13.50
2018-05-08T02:51:04.708Z,13.50
2018-05-08T02:53:32.775Z,13.50
2018-05-08T02:56:00.975Z,13.50
2018-05-08T02:58:29.043Z,13.50
2018-05-08T03:00:57.127Z,13.50
2018-05-08T03:03:25.725Z,13.50
2018-05-08T03:05:54.557Z,13.40
2018-05-08T03:08:22.613Z,13.40
2018-05-08T03:10:51.171Z,13.40
2018-05-08T03:13:19.999Z,13.30
2018-05-08T03:15:48.071Z,13.30
2018-05-08T03:18:16.587Z,13.10
2018-05-08T03:20:44.656Z,13.10
2018-05-08T03:23:12.734Z,13.20
2018-05-08T03:25:41.383Z,13.30
2018-05-08T03:28:09.436Z,13.30
2018-05-08T03:30:37.520Z,13.30
2018-05-08T03:33:06.420Z,13.20
2018-05-08T03:35:34.468Z,13.20
2018-05-08T03:38:02.571Z,13.20
2018-05-08T03:40:30.715Z,13.20
2018-05-08T03:42:58.765Z,13.20
2018-05-08T03:45:26.838Z,13.20
2018-05-08T03:47:55.085Z,13.20
2018-05-08T03:50:23.143Z,13.30
2018-05-08T03:52:51.216Z,13.20
2018-05-08T03:55:19.806Z,13.10
2018-05-08T03:57:47.880Z,13.10
2018-05-08T04:00:27.630Z,13.10
2018-05-08T04:03:07.466Z,13.20
2018-05-08T04:05:47.278Z,13.20
2018-05-08T04:08:27.260Z,13.10
2018-05-08T04:10:55.341Z,13.20
2018-05-08T04:13:23.401Z,13.20
2018-05-08T04:15:51.485Z,13.20
2018-05-08T04:18:20.054Z,13.10
2018-05-08T04:20:48.121Z,12.80
2018-05-08T04:23:16.208Z,12.80
2018-05-08T04:25:44.585Z,12.80
2018-05-08T04:28:12.656Z,12.90
2018-05-08T04:30:40.730Z,12.90
2018-05-08T04:33:09.048Z,13.00
2018-05-08T04:35:37.097Z,12.90
2018-05-08T04:38:05.167Z,12.90
2018-05-08T04:40:33.615Z,12.80
2018-05-08T04:43:01.678Z,12.90
2018-05-08T04:45:29.767Z,12.90
2018-05-08T04:47:58.441Z,13.00
2018-05-08T04:50:26.521Z,13.00
2018-05-08T04:52:54.599Z,13.00
2018-05-08T04:55:22.969Z,13.00
2018-05-08T04:57:51.041Z,13.00
2018-05-08T05:00:19.117Z,13.00
2018-05-08T05:02:47.852Z,13.00
2018-05-08T05:05:15.887Z,13.20
2018-05-08T05:07:44.723Z,13.20
2018-05-08T05:10:13.105Z,13.10
2018-05-08T05:12:41.177Z,13.20
2018-05-08T05:15:09.237Z,13.20
2018-05-08T05:17:37.471Z,13.30
2018-05-08T05:20:05.530Z,13.30
2018-05-08T05:22:33.596Z,13.30
2018-05-08T05:25:02.283Z,13.40
2018-05-08T05:27:30.356Z,13.30
2018-05-08T05:29:58.421Z,13.30
2018-05-08T05:32:26.613Z,13.30
2018-05-08T05:34:55.364Z,13.30
2018-05-08T05:37:23.426Z,13.40
2018-05-08T05:39:52.093Z,13.60
2018-05-08T05:42:20.158Z,13.60
2018-05-08T05:44:48.233Z,13.60
2018-05-08T05:47:16.775Z,13.70
2018-05-08T05:49:44.847Z,13.70
2018-05-08T05:52:12.964Z,13.70
2018-05-08T05:54:41.593Z,13.70
2018-05-08T05:57:09.663Z,13.80
2018-05-08T05:59:37.728Z,13.90
2018-05-08T06:02:06.163Z,14.00
2018-05-08T06:04:34.240Z,13.80
2018-05-08T06:07:02.325Z,13.80
2018-05-08T06:09:30.441Z,13.70
2018-05-08T06:11:58.576Z,13.80
2018-05-08T06:14:26.587Z,13.80
2018-05-08T06:16:54.792Z,14.00
2018-05-08T06:19:22.858Z,14.00
2018-05-08T06:21:50.924Z,14.10
2018-05-08T06:24:19.045Z,14.00
2018-05-08T06:26:47.110Z,13.90
2018-05-08T06:29:15.184Z,13.80
2018-05-08T06:31:43.598Z,13.90
2018-05-08T06:34:11.676Z,13.90
2018-05-08T06:36:39.914Z,14.20
2018-05-08T06:39:08.444Z,14.40
2018-05-08T06:41:37.278Z,14.80
2018-05-08T06:44:05.354Z,14.80
2018-05-08T06:46:33.662Z,14.80
2018-05-08T06:49:02.394Z,14.70
2018-05-08T06:51:30.460Z,14.70
2018-05-08T06:53:59.004Z,14.70
2018-05-08T06:56:27.068Z,14.80
2018-05-08T06:58:55.132Z,14.80
2018-05-08T07:01:23.556Z,14.90
2018-05-08T07:03:51.616Z,15.10
2018-05-08T07:06:19.692Z,15.20
2018-05-08T07:08:48.636Z,15.50
2018-05-08T07:11:16.698Z,15.40
2018-05-08T07:13:44.761Z,15.50
2018-05-08T07:16:13.146Z,15.60
2018-05-08T07:18:41.008Z,15.70
2018-05-08T07:21:09.082Z,15.90
2018-05-08T07:23:37.380Z,15.80
2018-05-08T07:26:05.437Z,15.90
2018-05-08T07:28:33.512Z,16.00
2018-05-08T07:31:01.682Z,16.00
2018-05-08T07:33:29.784Z,16.10
2018-05-08T07:35:57.835Z,16.20
2018-05-08T07:38:26.583Z,16.20
2018-05-08T07:40:54.659Z,16.30
2018-05-08T07:43:22.723Z,16.30
2018-05-08T07:45:50.940Z,16.30
2018-05-08T07:48:19.009Z,16.50
2018-05-08T07:50:47.078Z,16.70
2018-05-08T07:53:15.450Z,16.50
2018-05-08T07:55:43.524Z,16.80
2018-05-08T07:58:11.598Z,17.00
2018-05-08T08:00:39.977Z,17.10
2018-05-08T08:03:08.048Z,17.20
2018-05-08T08:05:36.114Z,17.30
2018-05-08T08:08:04.820Z,17.40
2018-05-08T08:10:32.918Z,17.60
2018-05-08T08:13:00.979Z,17.60
2018-05-08T08:15:29.936Z,17.60
2018-05-08T08:17:58.008Z,17.60
2018-05-08T08:20:26.062Z,17.60
2018-05-08T08:22:54.812Z,17.80
2018-05-08T08:25:22.882Z,17.90
2018-05-08T08:27:50.946Z,18.10
2018-05-08T08:30:20.213Z,18.30
2018-05-08T08:32:48.278Z,18.30
2018-05-08T08:35:16.343Z,18.30
2018-05-08T08:37:44.780Z,18.30
2018-05-08T08:40:13.276Z,18.20
2018-05-08T08:42:41.336Z,18.30
2018-05-08T08:45:09.900Z,18.30
2018-05-08T08:47:38.800Z,18.50
2018-05-08T08:50:06.821Z,18.50
2018-05-08T08:52:35.061Z,18.80
2018-05-08T08:55:03.125Z,18.80
2018-05-08T08:57:31.184Z,18.90
2018-05-08T09:00:00.453Z,19.30
2018-05-08T09:02:28.517Z,19.30
2018-05-08T09:04:56.609Z,19.40
2018-05-08T09:07:25.577Z,19.50
2018-05-08T09:09:53.649Z,19.50
2018-05-08T09:12:21.726Z,19.50
2018-05-08T09:14:50.127Z,19.50
2018-05-08T09:17:18.959Z,19.50
2018-05-08T09:19:47.016Z,19.50
2018-05-08T09:22:15.247Z,19.70
2018-05-08T09:24:43.305Z,20.00
2018-05-08T09:27:11.368Z,20.20
2018-05-08T09:29:39.541Z,20.30
2018-05-08T09:32:07.602Z,20.50
2018-05-08T09:34:35.650Z,20.50
2018-05-08T09:37:04.009Z,20.60
2018-05-08T09:39:32.832Z,20.60
2018-05-08T09:42:01.212Z,20.60
2018-05-08T09:44:29.441Z,20.60
2018-05-08T09:46:58.262Z,20.60
2018-05-08T09:49:26.320Z,20.60
2018-05-08T09:51:54.574Z,20.60
2018-05-08T09:54:23.406Z,21.20
2018-05-08T09:56:51.461Z,21.20
2018-05-08T09:59:19.632Z,21.50
2018-05-08T10:01:47.700Z,21.60
2018-05-08T10:04:15.770Z,21.60
2018-05-08T10:06:44.259Z,21.70
2018-05-08T10:09:12.284Z,21.90
2018-05-08T10:11:40.337Z,22.10
2018-05-08T10:14:08.444Z,22.10
2018-05-08T10:16:37.316Z,22.10
2018-05-08T10:19:05.386Z,22.10
2018-05-08T10:21:33.505Z,22.50
2018-05-08T10:24:01.580Z,22.80
2018-05-08T10:26:29.640Z,23.00
2018-05-08T10:28:57.795Z,23.20
2018-05-08T10:31:26.658Z,23.00
2018-05-08T10:33:54.709Z,23.00
2018-05-08T10:36:23.208Z,22.90
2018-05-08T10:38:51.268Z,22.90
2018-05-08T10:41:19.331Z,22.90
2018-05-08T10:43:48.505Z,22.90
2018-05-08T10:46:16.581Z,23.00
2018-05-08T10:48:44.669Z,23.20
2018-05-08T10:51:13.161Z,23.40
2018-05-08T10:53:41.221Z,23.50
2018-05-08T10:56:09.293Z,23.50
2018-05-08T10:58:37.457Z,23.50
2018-05-08T11:01:05.513Z,23.70
2018-05-08T11:03:33.587Z,23.90
2018-05-08T11:06:02.200Z,23.80
2018-05-08T11:08:30.265Z,23.80
2018-05-08T11:10:58.329Z,23.90
2018-05-08T11:13:26.732Z,24.00
2018-05-08T11:15:54.841Z,24.00
2018-05-08T11:18:22.903Z,24.30
2018-05-08T11:20:51.853Z,24.90
2018-05-08T11:23:19.928Z,24.90
2018-05-08T11:25:48.007Z,25.20
2018-05-08T11:28:16.401Z,25.30
2018-05-08T11:30:44.453Z,25.20
2018-05-08T11:33:12.517Z,25.60
2018-05-08T11:35:40.901Z,25.70
2018-05-08T11:38:08.952Z,26.20
2018-05-08T11:40:37.024Z,26.40
2018-05-08T11:43:05.187Z,26.20
2018-05-08T11:45:33.404Z,26.20
2018-05-08T11:48:01.459Z,26.10
2018-05-08T11:50:31.485Z,25.10
2018-05-08T11:52:59.554Z,25.10
2018-05-08T11:55:27.618Z,25.10
2018-05-08T11:57:56.317Z,25.30
2018-05-08T12:00:24.389Z,25.50
2018-05-08T12:02:52.453Z,25.80
2018-05-08T12:05:20.881Z,25.80
2018-05-08T12:07:49.701Z,26.40
2018-05-08T12:10:19.692Z,26.40
2018-05-08T12:12:47.748Z,26.40
2018-05-08T12:15:15.818Z,26.50
2018-05-08T12:17:44.260Z,26.70
2018-05-08T12:20:12.374Z,27.00
2018-05-08T12:22:41.174Z,27.40
2018-05-08T12:25:09.692Z,27.40
2018-05-08T12:27:37.760Z,27.60
2018-05-08T12:30:05.839Z,27.50
2018-05-08T12:32:33.950Z,27.50
2018-05-08T12:35:02.776Z,27.50
2018-05-08T12:37:30.842Z,27.40
2018-05-08T12:39:59.368Z,28.00
2018-05-08T12:42:27.426Z,28.40
2018-05-08T12:44:55.487Z,28.50
2018-05-08T12:47:24.075Z,28.50
2018-05-08T12:49:52.153Z,28.30
2018-05-08T12:52:20.217Z,28.30
2018-05-08T12:54:48.699Z,28.30
2018-05-08T12:57:16.777Z,28.30
2018-05-08T12:59:44.847Z,28.20
2018-05-08T13:02:12.973Z,28.10
2018-05-08T13:04:41.023Z,28.40
2018-05-08T13:07:09.875Z,27.80
2018-05-08T13:09:38.345Z,27.80
2018-05-08T13:12:06.403Z,27.80
2018-05-08T13:14:34.489Z,28.30
2018-05-08T13:17:03.193Z,28.30
2018-05-08T13:19:31.259Z,28.80
2018-05-08T13:21:59.349Z,29.10
2018-05-08T13:24:28.331Z,29.10
2018-05-08T13:26:56.397Z,29.10
2018-05-08T13:29:24.497Z,29.20
2018-05-08T13:31:53.767Z,29.10
2018-05-08T13:34:21.829Z,29.10
2018-05-08T13:36:49.923Z,29.20
2018-05-08T13:39:18.291Z,29.30
2018-05-08T13:41:46.358Z,29.10
2018-05-08T13:44:14.430Z,29.30
2018-05-08T13:46:42.809Z,29.50
2018-05-08T13:49:11.359Z,29.70
2018-05-08T13:51:39.415Z,29.40
2018-05-08T13:54:07.643Z,29.20
2018-05-08T13:56:35.693Z,29.20
2018-05-08T13:59:03.777Z,29.10
2018-05-08T14:01:32.193Z,29.10
2018-05-08T14:04:01.023Z,29.00
2018-05-08T14:06:29.079Z,29.00
2018-05-08T14:08:57.326Z,28.60
2018-05-08T14:11:26.150Z,28.80
2018-05-08T14:13:54.216Z,28.80
2018-05-08T14:16:22.748Z,28.90
2018-05-08T14:18:51.573Z,28.40
2018-05-08T14:21:19.622Z,28.30
2018-05-08T14:23:48.834Z,28.00
2018-05-08T14:26:16.898Z,28.00
2018-05-08T14:28:45.718Z,28.50
2018-05-08T14:31:13.980Z,28.40
2018-05-08T14:33:42.040Z,28.70
2018-05-08T14:36:10.100Z,29.00
2018-05-08T14:38:39.400Z,29.30
2018-05-08T14:41:08.346Z,29.40
2018-05-08T14:43:36.517Z,29.40
2018-05-08T14:46:04.478Z,29.60
2018-05-08T14:48:33.223Z,29.80
2018-05-08T14:51:02.350Z,30.00
2018-05-08T14:56:05.112Z,29.70
2018-05-08T14:58:33.186Z,29.70
2018-05-08T15:01:02.031Z,30.10
2018-05-08T15:03:30.222Z,30.00
2018-05-08T15:05:58.283Z,30.20
2018-05-08T15:08:26.346Z,30.30
2018-05-08T15:10:54.765Z,30.50
2018-05-08T15:13:23.585Z,30.20
2018-05-08T15:15:51.649Z,30.20
2018-05-08T15:18:19.881Z,30.20
2018-05-08T15:20:47.958Z,29.90
2018-05-08T15:23:16.021Z,29.60
2018-05-08T15:25:44.147Z,29.10
2018-05-08T15:28:12.206Z,29.20
2018-05-08T15:30:40.257Z,29.10
2018-05-08T15:33:09.225Z,29.30
2018-05-08T15:35:37.290Z,29.30
2018-05-08T15:38:05.345Z,29.70
2018-05-08T15:40:33.729Z,29.90
2018-05-08T15:43:01.807Z,30.20
2018-05-08T15:45:29.859Z,30.30
2018-05-08T15:47:58.248Z,30.40
2018-05-08T15:50:26.337Z,30.60
2018-05-08T15:52:54.877Z,30.60
2018-05-08T15:55:23.391Z,30.70
2018-05-08T15:57:51.461Z,30.70
2018-05-08T16:00:19.518Z,30.60
2018-05-08T16:02:47.908Z,30.70
2018-05-08T16:05:15.992Z,30.70
2018-05-08T16:07:44.052Z,30.50
2018-05-08T16:10:12.448Z,29.90
2018-05-08T16:12:40.518Z,29.80
2018-05-08T16:15:08.572Z,30.20
2018-05-08T16:17:36.946Z,30.50
2018-05-08T16:20:05.016Z,30.50
2018-05-08T16:22:33.084Z,30.20
2018-05-08T16:25:01.460Z,30.00
2018-05-08T16:27:29.572Z,29.10
2018-05-08T16:29:57.603Z,29.20
2018-05-08T16:32:26.345Z,29.80
2018-05-08T16:34:55.176Z,30.30
2018-05-08T16:37:23.241Z,30.30
2018-05-08T16:39:51.395Z,29.70
2018-05-08T16:42:19.450Z,29.20
2018-05-08T16:44:47.512Z,29.60
2018-05-08T16:47:15.992Z,29.90
2018-05-08T16:49:44.823Z,30.00
2018-05-08T16:52:12.882Z,30.00
2018-05-08T16:54:42.059Z,30.00
2018-05-08T16:57:10.080Z,29.90
2018-05-08T16:59:38.140Z,29.80
2018-05-08T17:02:06.288Z,30.00
2018-05-08T17:04:34.350Z,29.90
2018-05-08T17:07:02.412Z,29.90
2018-05-08T17:09:30.528Z,30.00
2018-05-08T17:11:58.698Z,30.30
2018-05-08T17:14:26.738Z,30.20
2018-05-08T17:16:54.800Z,30.40
2018-05-08T17:19:23.096Z,30.40
2018-05-08T17:21:51.169Z,30.20
2018-05-08T17:24:19.236Z,30.20
2018-05-08T17:26:47.561Z,30.30
2018-05-08T17:29:15.627Z,30.20
2018-05-08T17:31:43.697Z,30.20
2018-05-08T17:34:11.851Z,30.10
2018-05-08T17:36:39.912Z,29.80
2018-05-08T17:39:08.044Z,29.40
2018-05-08T17:41:36.176Z,28.90
2018-05-08T17:44:04.236Z,28.30
2018-05-08T17:46:32.296Z,27.90
2018-05-08T17:49:01.570Z,27.60
2018-05-08T17:51:29.637Z,27.30
2018-05-08T17:53:57.697Z,27.40
2018-05-08T17:56:27.331Z,27.20
2018-05-08T17:58:55.375Z,27.20
2018-05-08T18:01:23.441Z,27.00
2018-05-08T18:03:52.619Z,26.30
2018-05-08T18:06:20.681Z,26.30
2018-05-08T18:08:48.753Z,26.20
2018-05-08T18:11:17.196Z,25.80
2018-05-08T18:13:45.189Z,25.60
2018-05-08T18:16:13.265Z,25.40
2018-05-08T18:18:41.663Z,25.40
2018-05-08T18:21:09.725Z,25.20
2018-05-08T18:23:37.788Z,25.20
2018-05-08T18:26:05.939Z,25.10
2018-05-08T18:28:33.991Z,25.00
2018-05-08T18:31:02.055Z,24.70
2018-05-08T18:33:30.248Z,24.70
2018-05-08T18:35:58.310Z,24.60
2018-05-08T18:38:26.386Z,24.20
2018-05-08T18:40:54.620Z,24.00
2018-05-08T18:43:23.444Z,23.60
2018-05-08T18:45:51.580Z,23.50
2018-05-08T18:48:20.070Z,23.50
2018-05-08T18:50:48.906Z,23.70
2018-05-08T18:53:16.970Z,23.60
2018-05-08T18:55:45.542Z,23.70
2018-05-08T18:58:14.042Z,23.30
2018-05-08T19:00:47.706Z,23.10
2018-05-08T19:03:15.756Z,22.80
2018-05-08T19:05:43.824Z,22.50
2018-05-08T19:08:11.891Z,22.40
2018-05-08T19:10:40.144Z,22.20
2018-05-08T19:13:08.220Z,22.10
2018-05-08T19:15:41.924Z,22.10
2018-05-08T19:18:10.406Z,22.30
2018-05-08T19:20:38.468Z,22.30
2018-05-08T19:23:06.556Z,22.20
2018-05-08T19:25:34.948Z,22.30
2018-05-08T19:28:08.698Z,22.30
2018-05-08T19:30:36.943Z,22.10
2018-05-08T19:33:05.766Z,21.70
2018-05-08T19:35:39.505Z,21.70
2018-05-08T19:38:13.448Z,21.70
2018-05-08T19:40:42.267Z,21.30
2018-05-08T19:43:10.463Z,21.30
2018-05-08T19:45:38.531Z,21.00
2018-05-08T19:48:06.595Z,21.00
2018-05-08T19:50:35.059Z,21.00
2018-05-08T19:53:03.127Z,21.10
2018-05-08T19:55:31.173Z,21.10
2018-05-08T19:57:59.518Z,21.10
2018-05-08T20:00:27.745Z,21.00
2018-05-08T20:02:55.798Z,21.00
2018-05-08T20:05:24.766Z,21.10
2018-05-08T20:07:52.821Z,21.10
2018-05-08T20:10:20.881Z,21.10
2018-05-08T20:12:49.183Z,21.20
2018-05-08T20:15:17.240Z,21.20
2018-05-08T20:17:45.307Z,21.10
2018-05-08T20:20:13.473Z,21.00
2018-05-08T20:22:41.535Z,20.90
2018-05-08T20:25:09.603Z,20.80
2018-05-08T20:27:38.569Z,20.90
2018-05-08T20:30:06.633Z,20.80
2018-05-08T20:32:34.696Z,20.80
2018-05-08T20:35:02.834Z,20.80
2018-05-08T20:37:30.956Z,20.70
2018-05-08T20:39:59.023Z,20.80
2018-05-08T20:42:27.561Z,20.80
2018-05-08T20:44:55.612Z,20.80
2018-05-08T20:47:23.684Z,20.90
2018-05-08T20:49:52.089Z,20.80
2018-05-08T20:52:20.141Z,20.90
2018-05-08T20:54:48.239Z,20.90
2018-05-08T20:57:17.225Z,20.90
2018-05-08T20:59:45.429Z,20.90
2018-05-08T21:02:13.828Z,20.80
2018-05-08T21:04:41.987Z,20.80
2018-05-08T21:07:10.046Z,20.80
2018-05-08T21:09:38.256Z,20.90
2018-05-08T21:12:06.865Z,20.90
2018-05-08T21:14:34.934Z,20.70
2018-05-08T21:17:03.031Z,20.70
2018-05-08T21:19:31.994Z,20.80
2018-05-08T21:22:00.051Z,20.80
2018-05-08T21:24:28.135Z,20.80
2018-05-08T21:26:56.246Z,20.80
2018-05-08T21:29:30.793Z,20.60
2018-05-08T21:31:59.125Z,20.50
2018-05-08T21:34:27.188Z,20.60
2018-05-08T21:36:55.263Z,20.50
2018-05-08T21:39:23.699Z,20.50
2018-05-08T21:41:51.757Z,20.50
2018-05-08T21:44:19.859Z,20.50
2018-05-08T21:46:48.152Z,20.40
2018-05-08T21:49:16.217Z,20.30
2018-05-08T21:51:44.282Z,20.30
2018-05-08T21:54:12.386Z,20.20
2018-05-08T21:56:40.445Z,20.20
2018-05-08T21:59:08.509Z,20.20
2018-05-08T22:01:37.196Z,20.10
2018-05-08T22:04:05.355Z,20.00
2018-05-08T22:06:33.424Z,20.00
2018-05-08T22:09:01.605Z,20.00
2018-05-08T22:11:29.672Z,20.00
2018-05-08T22:13:57.753Z,20.00
2018-05-08T22:16:25.934Z,19.90
2018-05-08T22:18:53.992Z,19.90
2018-05-08T22:21:22.045Z,19.90
2018-05-08T22:23:50.469Z,19.80
2018-05-08T22:26:19.288Z,19.70
2018-05-08T22:28:47.771Z,19.70
2018-05-08T22:31:15.948Z,19.70
2018-05-08T22:33:44.008Z,19.60
2018-05-08T22:36:12.064Z,19.50
2018-05-08T22:38:41.338Z,19.30
2018-05-08T22:41:09.402Z,19.30
2018-05-08T22:43:37.523Z,19.30
2018-05-08T22:46:06.472Z,19.10
2018-05-08T22:48:34.562Z,19.10
2018-05-08T22:51:03.385Z,19.00
2018-05-08T22:53:31.605Z,18.90
2018-05-08T22:55:59.688Z,18.90
2018-05-08T22:58:27.750Z,18.80
2018-05-08T23:00:56.119Z,18.70
2018-05-08T23:03:24.196Z,18.70
2018-05-08T23:05:52.746Z,18.60
2018-05-08T23:08:20.975Z,18.60
2018-05-08T23:10:49.797Z,18.60
2018-05-08T23:13:17.860Z,18.60
2018-05-08T23:15:46.089Z,18.50
2018-05-08T23:18:14.228Z,18.40
2018-05-08T23:20:43.009Z,18.30
2018-05-08T23:23:11.213Z,18.20
2018-05-08T23:25:39.289Z,18.20
2018-05-08T23:28:07.352Z,18.10
2018-05-08T23:30:35.459Z,18.00
2018-05-08T23:33:04.313Z,17.80
2018-05-08T23:35:32.377Z,17.80
2018-05-08T23:38:00.535Z,17.80
2018-05-08T23:40:28.639Z,17.60
2018-05-08T23:42:56.681Z,17.40
2018-05-08T23:45:24.839Z,17.30
2018-05-08T23:47:52.911Z,17.20
2018-05-08T23:50:20.961Z,17.10
2018-05-08T23:52:49.305Z,17.00
2018-05-08T23:55:17.369Z,16.90
2018-05-08T23:57:45.425Z,16.90
